Como, TN

9:59 AM CST on December 22, 2014 (GMT -0600)
McKellar-Sipes Regional | Change Station
CLOSE
Current Station
Airport
Location: Jackson,
Elevation: 433 ft
Nearby Weather Stations

Elev 433 ft 35.59 °N, 88.92 °W | Updated 6 minutes ago

Overcast
Overcast
53 °F
Feels Like 53 °F
N
10
Wind Variable Wind from SSE

Today
High -- | Low -- °F
--% Chance of Precip.
Yesterday
High -- | Low -- °F
Precip. -- in
7:02 AM 4:42 PM
New Moon, 0% visible
Pressure 29.83 in
Visibility 10.0 miles
Clouds Overcast 1000 ft
Dew Point 48 °F
Humidity 83%
Rainfall 0.00 in
Snow Depth Not available.
UV 1 out of 12
Pollen .10 out of 12
Air Quality Not available.
Flu Activity Not available.
METAR KMKL 221553Z 15009KT 10SM OVC010 12/09 A2982 RMK AO2 SLP099 T01170089

More Conditions Fewer Conditions

Pressure 29.83 in
Visibility 10.0 miles
Clouds Overcast 1000 ft
Dew Point 48 °F
Humidity 83%
Rainfall 0.00 in
Snow Depth Not available.
UV 1 out of 12
Pollen .10 out of 12
Air Quality Not available.
Flu Activity Not available.
METAR KMKL 221553Z 15009KT 10SM OVC010 12/09 A2982 RMK AO2 SLP099 T01170089

More Conditions Fewer Conditions

10-Day Weather Forecast

Almanac

Astronomy

Dec. 22, 2014 Rise Set
Actual Time
Civil Twilight
Nautical Twilight
Astronomical Twilight
Moon
Length of Visible Light
Length of Day
Tomorrow will be .
, % of the Moon is Illuminated

Today's Extremes

State Highs State Lows

Community

WunderPhotos

Upload Photos

1,779,620 photos uploaded!

WunderBlogs® & News

Nearby

Air Quality

  Air Quality AQ Index Pollutant
Not available.

Snow Depth

Station Depth Elevation

Earthquake Activity

City Distance Mag. Time & Date
Minimum magnitude displayed is 2.5.

Coastal Water Temperatures

Place Temperature

Nearby Weather Stations